Time;durP1;ratioP1;P1;durP2;ratioP2;P2;SDS_P1;SDS_P2;PMS_P1;PMS_P2;Temp;Humidity;BMP_temperature;BMP_pressure;BME280_temperature;BME280_humidity;BME280_pressure;Samples;Min_cycle;Max_cycle;Signal;HPM_P1;HPM_P2
2021/08/05 00:01:25;;;;;;;6.50;4.60;;;;;;;19.65;39.00;100740.47;3563669;40;20510;-67
2021/08/05 00:03:53;;;;;;;5.75;4.38;;;;;;;19.63;38.73;100736.16;3564563;40;20335;-67
2021/08/05 00:06:25;;;;;;;4.97;4.18;;;;;;;19.61;39.50;100741.91;3569873;40;20067;-67
2021/08/05 00:08:53;;;;;;;5.95;4.53;;;;;;;19.59;39.43;100740.41;3564750;40;20048;-67
2021/08/05 00:11:21;;;;;;;4.88;3.92;;;;;;;19.58;39.06;100736.75;3563625;40;20056;-67
2021/08/05 00:13:49;;;;;;;5.32;4.28;;;;;;;19.55;38.85;100743.56;3563375;40;20639;-67
2021/08/05 00:16:19;;;;;;;6.40;4.68;;;;;;;19.56;39.04;100738.88;3564159;40;20067;-67
2021/08/05 00:18:48;;;;;;;6.00;4.70;;;;;;;19.52;38.99;100738.38;3563351;40;20053;-67
2021/08/05 00:21:16;;;;;;;5.78;4.40;;;;;;;19.52;39.52;100743.06;3562943;40;20087;-66
2021/08/05 00:23:44;;;;;;;5.95;4.45;;;;;;;19.51;39.26;100731.09;3562985;40;20133;-66
2021/08/05 00:26:12;;;;;;;7.10;4.72;;;;;;;19.51;39.11;100733.06;3563855;40;20679;-66
2021/08/05 00:28:41;;;;;;;6.38;5.00;;;;;;;19.50;39.45;100734.06;3563462;40;20053;-66
2021/08/05 00:31:09;;;;;;;7.10;5.05;;;;;;;19.49;39.62;100738.75;3572677;40;20041;-66
2021/08/05 00:33:38;;;;;;;5.82;4.45;;;;;;;19.51;39.83;100741.38;3581210;40;20041;-66
2021/08/05 00:36:06;;;;;;;7.15;5.15;;;;;;;19.48;39.48;100734.25;3574888;40;20048;-66
2021/08/05 00:38:35;;;;;;;5.93;5.00;;;;;;;19.48;39.53;100731.47;3574382;40;20036;-67
2021/08/05 00:41:03;;;;;;;6.60;5.20;;;;;;;19.47;39.86;100726.13;3576224;40;20145;-66
2021/08/05 00:43:34;;;;;;;6.30;5.30;;;;;;;19.46;39.84;100727.16;3582627;40;20041;-66
2021/08/05 00:46:02;;;;;;;8.57;7.13;;;;;;;19.44;40.38;100721.81;3575456;40;20107;-66
2021/08/05 00:48:30;;;;;;;7.43;6.07;;;;;;;19.42;39.90;100718.38;3573049;40;20057;-66
2021/08/05 00:51:00;;;;;;;9.60;6.75;;;;;;;19.41;40.07;100713.91;3582680;40;20384;-66
2021/08/05 00:53:28;;;;;;;7.40;6.38;;;;;;;19.38;40.19;100713.41;3574327;40;20045;-66
2021/08/05 00:55:57;;;;;;;8.00;6.43;;;;;;;19.35;40.45;100711.03;3574708;40;20187;-66
2021/08/05 00:58:25;;;;;;;6.72;6.03;;;;;;;19.34;40.27;100712.09;3574437;40;20041;-66
2021/08/05 01:01:01;;;;;;;7.95;6.22;;;;;;;19.35;41.42;100709.09;3576169;40;20064;-66
2021/08/05 01:03:33;;;;;;;8.30;6.80;;;;;;;19.34;41.07;100706.53;3575489;40;20041;-66
2021/08/05 01:06:15;;;;;;;7.90;6.75;;;;;;;19.30;41.60;100703.28;3575397;40;20497;-66
2021/08/05 01:08:50;;;;;;;7.57;6.05;;;;;;;19.27;41.26;100697.25;3575891;40;20056;-67
2021/08/05 01:11:23;;;;;;;7.03;6.32;;;;;;;19.26;40.96;100699.19;3583660;40;20048;-66
2021/08/05 01:13:55;;;;;;;7.32;6.25;;;;;;;19.23;40.52;100694.03;3568452;40;20044;-66
2021/08/05 01:16:26;;;;;;;;;;;;;;;18.93;41.10;100704.28;3576008;40;20403;-66
2021/08/05 01:18:58;;;;;;;6.28;5.15;;;;;;;19.18;40.47;100696.53;3574905;40;19944;-66
2021/08/05 01:21:37;;;;;;;7.28;5.38;;;;;;;19.19;40.79;100698.22;3637430;22;20390;-68
2021/08/05 01:24:08;;;;;;;7.72;5.70;;;;;;;19.18;40.69;100690.97;3575210;40;20076;-68
2021/08/05 01:26:57;;;;;;;7.07;5.90;;;;;;;19.16;40.79;100693.06;3575031;40;20316;-68
2021/08/05 01:29:29;;;;;;;8.10;5.85;;;;;;;19.14;40.58;100684.09;3572938;40;20037;-69
2021/08/05 01:32:00;;;;;;;7.75;6.15;;;;;;;19.15;40.47;100694.97;3568585;40;20049;-68
2021/08/05 01:34:28;;;;;;;6.90;5.80;;;;;;;19.14;40.38;100693.25;3572961;40;20065;-68
2021/08/05 01:36:58;;;;;;;7.18;6.20;;;;;;;19.15;40.99;100681.13;3570783;40;20475;-69
2021/08/05 01:39:28;;;;;;;9.15;6.60;;;;;;;19.15;41.02;100683.91;3568836;40;20045;-68
2021/08/05 01:41:57;;;;;;;7.80;6.68;;;;;;;19.14;40.77;100689.63;3572093;40;20048;-68
2021/08/05 01:44:27;;;;;;;9.10;6.72;;;;;;;19.11;41.17;100678.91;3569626;40;20048;-68
2021/08/05 01:46:56;;;;;;;8.80;7.22;;;;;;;19.08;41.47;100684.88;3569073;40;20156;-69
2021/08/05 01:49:25;;;;;;;7.85;6.40;;;;;;;19.08;40.93;100676.53;3568157;40;20300;-69
2021/08/05 01:51:54;;;;;;;7.93;6.38;;;;;;;19.07;41.18;100683.13;3569885;40;20041;-69
2021/08/05 01:54:22;;;;;;;7.07;6.32;;;;;;;19.04;41.12;100672.41;3570846;40;20043;-69
2021/08/05 01:56:50;;;;;;;8.07;6.10;;;;;;;19.03;41.15;100679.88;3574004;40;20154;-69
2021/08/05 01:59:19;;;;;;;7.55;6.38;;;;;;;19.03;40.97;100677.09;3574356;40;20041;-68
2021/08/05 02:01:47;;;;;;;7.53;6.15;;;;;;;19.01;41.01;100675.59;3573033;40;20134;-68
2021/08/05 02:04:27;;;;;;;7.18;6.07;;;;;;;19.03;41.37;100671.56;3574176;40;20052;-68
2021/08/05 02:07:00;;;;;;;8.27;6.75;;;;;;;19.01;41.55;100679.22;3574507;40;20060;-68
2021/08/05 02:09:33;;;;;;;7.60;6.30;;;;;;;19.02;40.83;100674.56;3571559;40;20231;-68
2021/08/05 02:12:02;;;;;;;9.60;7.25;;;;;;;19.00;41.04;100677.50;3570816;40;20045;-68
2021/08/05 02:14:32;;;;;;;7.35;6.00;;;;;;;19.01;41.04;100670.06;3570244;40;20400;-68
2021/08/05 02:17:02;;;;;;;8.50;6.88;;;;;;;19.00;40.83;100671.97;3570309;40;20056;-69
2021/08/05 02:19:31;;;;;;;8.32;6.80;;;;;;;18.99;41.19;100664.69;3571356;40;20047;-68
2021/08/05 02:22:00;;;;;;;7.68;6.60;;;;;;;19.00;40.84;100660.00;3571016;40;20678;-69
2021/08/05 02:24:30;;;;;;;8.27;7.25;;;;;;;18.99;41.15;100664.69;3574450;40;20063;-68
2021/08/05 02:27:00;;;;;;;8.60;7.18;;;;;;;19.00;40.85;100660.00;3570235;40;20057;-69
2021/08/05 02:29:29;;;;;;;9.80;7.43;;;;;;;18.99;41.21;100652.75;3570355;40;20038;-68
2021/08/05 02:31:58;;;;;;;8.80;7.28;;;;;;;19.00;41.10;100652.56;3567062;40;20049;-68
2021/08/05 02:34:29;;;;;;;8.43;6.50;;;;;;;18.98;41.32;100653.78;3573436;40;20069;-68
2021/08/05 02:36:58;;;;;;;8.15;7.25;;;;;;;18.98;41.23;100653.78;3572811;40;20054;-69
2021/08/05 02:39:26;;;;;;;8.90;6.57;;;;;;;18.95;41.38;100641.16;3569828;40;20060;-68
2021/08/05 02:41:54;;;;;;;7.25;6.30;;;;;;;18.96;41.03;100647.56;3575572;40;20080;-68
2021/08/05 02:44:23;;;;;;;12.07;6.35;;;;;;;18.96;41.01;100655.88;3573294;40;20036;-69
2021/08/05 02:46:52;;;;;;;7.40;6.50;;;;;;;18.94;41.50;100650.53;3576351;40;20334;-69
2021/08/05 02:49:21;;;;;;;7.85;6.10;;;;;;;18.94;41.04;100653.31;3568046;40;20041;-68
2021/08/05 02:51:49;;;;;;;7.30;6.50;;;;;;;18.92;41.57;100649.88;3571179;40;20104;-69
2021/08/05 02:54:19;;;;;;;7.95;6.72;;;;;;;18.91;41.37;100642.63;3576187;40;20045;-69
2021/08/05 02:56:47;;;;;;;8.00;6.38;;;;;;;18.89;41.43;100641.94;3575166;40;20390;-69
2021/08/05 02:59:15;;;;;;;9.43;7.05;;;;;;;18.88;41.70;100650.44;3573186;40;20044;-68
2021/08/05 03:01:43;;;;;;;8.15;6.63;;;;;;;18.87;41.78;100649.59;3574842;40;20139;-67
2021/08/05 03:04:12;;;;;;;8.48;7.03;;;;;;;18.85;41.48;100645.31;3573633;40;20036;-69
2021/08/05 03:06:45;;;;;;;10.38;7.18;;;;;;;18.85;41.91;100651.72;3575437;40;20459;-69
2021/08/05 03:09:13;;;;;;;8.50;6.63;;;;;;;18.80;42.02;100643.09;3566591;40;20052;-69
2021/08/05 03:11:41;;;;;;;9.75;6.88;;;;;;;18.78;41.44;100646.03;3569592;40;20397;-68
2021/08/05 03:14:09;;;;;;;7.80;6.55;;;;;;;18.78;41.68;100651.59;3566001;40;20072;-69
2021/08/05 03:16:38;;;;;;;7.63;6.13;;;;;;;18.76;41.40;100652.81;3571852;40;20059;-68
2021/08/05 03:19:06;;;;;;;7.18;5.72;;;;;;;18.75;41.68;100648.31;3567510;40;20053;-68
2021/08/05 03:21:34;;;;;;;6.60;5.32;;;;;;;18.74;41.74;100643.84;3573207;40;20048;-69
2021/08/05 03:24:03;;;;;;;7.25;5.35;;;;;;;18.76;41.35;100638.97;3573867;40;20094;-69
2021/08/05 03:26:31;;;;;;;7.85;5.65;;;;;;;18.73;41.45;100642.09;3571484;40;20057;-68
2021/08/05 03:28:59;;;;;;;6.95;5.53;;;;;;;18.72;41.82;100640.38;3569339;40;20073;-69
2021/08/05 03:31:27;;;;;;;6.82;5.35;;;;;;;18.70;41.64;100634.16;3576503;40;20053;-69
2021/08/05 03:33:55;;;;;;;7.95;6.03;;;;;;;18.69;41.97;100638.84;3567281;40;20183;-69
2021/08/05 03:36:23;;;;;;;6.97;5.82;;;;;;;18.67;41.78;100635.44;3570106;40;20071;-68
2021/08/05 03:38:52;;;;;;;7.13;5.35;;;;;;;18.65;41.96;100633.88;3574360;40;20036;-68
2021/08/05 03:41:21;;;;;;;8.27;6.22;;;;;;;18.65;42.33;100636.66;3575118;40;20045;-69
2021/08/05 03:43:49;;;;;;;7.55;6.25;;;;;;;18.61;41.90;100629.75;3570722;40;20119;-68
2021/08/05 03:46:16;;;;;;;9.10;6.72;;;;;;;18.62;41.83;100628.72;3567390;40;20053;-68
2021/08/05 03:48:45;;;;;;;8.55;6.13;;;;;;;18.60;41.89;100626.16;3569015;40;20041;-69
2021/08/05 03:51:12;;;;;;;9.63;6.78;;;;;;;18.59;41.92;100621.66;3573345;40;20049;-68
2021/08/05 03:53:40;;;;;;;7.55;6.13;;;;;;;18.58;42.09;100619.09;3568604;40;20251;-69
2021/08/05 03:56:08;;;;;;;7.82;6.38;;;;;;;18.58;42.18;100616.31;3567673;40;20405;-68
2021/08/05 03:58:37;;;;;;;8.25;6.53;;;;;;;18.58;42.43;100622.72;3568587;40;20037;-69
2021/08/05 04:01:05;;;;;;;9.18;6.65;;;;;;;18.56;41.84;100622.03;3573394;40;20498;-70
2021/08/05 04:03:34;;;;;;;8.85;6.90;;;;;;;18.56;42.63;100616.50;3572974;40;20037;-68
2021/08/05 04:06:02;;;;;;;8.38;6.30;;;;;;;18.55;42.46;100617.53;3576180;40;20053;-68
2021/08/05 04:08:30;;;;;;;9.32;7.43;;;;;;;18.54;42.68;100614.97;3572567;40;20033;-68
2021/08/05 04:10:57;;;;;;;8.60;6.88;;;;;;;18.53;42.70;100616.00;3572578;40;20040;-69
2021/08/05 04:13:25;;;;;;;9.77;6.93;;;;;;;18.52;42.75;100628.16;3572671;40;20073;-68
2021/08/05 04:15:55;;;;;;;8.50;6.93;;;;;;;18.51;42.87;100616.22;3574242;40;20045;-69
2021/08/05 04:18:22;;;;;;;10.88;7.35;;;;;;;18.49;43.01;100611.91;3571843;40;20037;-68
2021/08/05 04:20:50;;;;;;;7.97;6.80;;;;;;;18.48;42.91;100616.59;3568681;40;20057;-69
2021/08/05 04:23:18;;;;;;;9.65;7.93;;;;;;;18.48;42.67;100621.28;3567870;40;20073;-69
2021/08/05 04:25:46;;;;;;;9.40;7.25;;;;;;;18.47;43.06;100617.63;3570644;40;20107;-68
2021/08/05 04:28:14;;;;;;;9.98;7.38;;;;;;;18.45;42.53;100625.28;3575570;40;20323;-68
2021/08/05 04:30:42;;;;;;;8.18;6.88;;;;;;;18.45;42.89;100625.28;3575559;40;20276;-68
2021/08/05 04:33:11;;;;;;;8.43;6.93;;;;;;;18.45;43.15;100622.50;3575157;40;20052;-69
2021/08/05 04:35:39;;;;;;;9.43;7.18;;;;;;;18.42;43.08;100629.31;3569269;40;20334;-69
2021/08/05 04:38:09;;;;;;;9.23;7.18;;;;;;;18.42;42.65;100633.97;3568892;40;20494;-68
2021/08/05 04:40:37;;;;;;;10.23;7.55;;;;;;;18.41;43.06;100633.13;3569364;40;20131;-68
2021/08/05 04:43:05;;;;;;;9.32;6.75;;;;;;;18.41;43.04;100624.81;3567416;40;20034;-69
2021/08/05 04:45:33;;;;;;;8.38;6.97;;;;;;;18.41;43.21;100621.16;3573196;40;20056;-68
2021/08/05 04:48:03;;;;;;;8.82;7.32;;;;;;;18.41;43.19;100616.50;3569633;40;20307;-68
2021/08/05 04:50:35;;;;;;;8.80;6.55;;;;;;;18.42;43.14;100612.69;3571578;40;20623;-69
2021/08/05 04:53:05;;;;;;;9.63;7.45;;;;;;;18.39;42.77;100618.59;3566257;40;20033;-69
2021/08/05 04:55:33;;;;;;;9.32;7.28;;;;;;;18.40;43.08;100617.53;3568116;40;20049;-69
2021/08/05 04:58:03;;;;;;;10.65;6.57;;;;;;;18.42;43.15;100622.91;3570296;40;20044;-69
2021/08/05 05:00:32;;;;;;;8.25;7.15;;;;;;;18.42;42.50;100611.81;3570422;40;20380;-68
2021/08/05 05:03:00;;;;;;;8.52;6.63;;;;;;;18.41;43.10;100604.56;3575512;40;20051;-69
2021/08/05 05:05:29;;;;;;;7.53;6.13;;;;;;;18.42;42.60;100603.50;3575671;40;20030;-70
2021/08/05 05:08:12;;;;;;;8.75;7.28;;;;;;;18.45;43.42;100597.56;3574380;40;20040;-69
2021/08/05 05:10:39;;;;;;;8.52;6.65;;;;;;;18.40;42.64;100598.16;3570212;40;20044;-69
2021/08/05 05:13:07;;;;;;;8.40;6.95;;;;;;;18.44;43.09;100595.88;3572235;40;20395;-69
2021/08/05 05:15:35;;;;;;;7.90;6.30;;;;;;;18.45;43.18;100592.91;3575579;40;20582;-69
2021/08/05 05:18:04;;;;;;;7.78;6.35;;;;;;;18.48;43.34;100590.81;3574368;40;20033;-69
2021/08/05 05:20:33;;;;;;;9.13;7.25;;;;;;;18.47;43.16;100587.16;3571774;40;20053;-70
2021/08/05 05:23:03;;;;;;;8.93;6.72;;;;;;;18.49;43.29;100587.84;3568362;40;20052;-69
2021/08/05 05:25:31;;;;;;;9.93;7.70;;;;;;;18.49;43.30;100592.53;3572363;40;20060;-69
2021/08/05 05:27:59;;;;;;;10.65;7.50;;;;;;;18.50;42.83;100589.56;3569532;40;20589;-69
2021/08/05 05:30:27;;;;;;;9.82;7.32;;;;;;;18.52;42.85;100597.69;3574777;40;20056;-69
2021/08/05 05:32:55;;;;;;;8.82;7.03;;;;;;;18.53;43.47;100591.06;3575516;40;20044;-70
2021/08/05 05:35:23;;;;;;;9.82;8.23;;;;;;;18.53;43.37;100591.94;3576135;40;20064;-69
2021/08/05 05:37:54;;;;;;;10.90;8.27;;;;;;;18.56;43.70;100596.25;3581781;40;20080;-69
2021/08/05 05:40:24;;;;;;;8.85;7.47;;;;;;;18.56;43.64;100597.09;3574375;40;20045;-70
2021/08/05 05:42:53;;;;;;;9.90;7.47;;;;;;;18.56;43.48;100601.78;3571321;40;20040;-69
2021/08/05 05:45:22;;;;;;;9.32;7.25;;;;;;;18.56;43.03;100594.34;3571350;40;20404;-69
2021/08/05 05:47:50;;;;;;;9.43;7.78;;;;;;;18.57;43.26;100593.28;3568691;40;20040;-71
2021/08/05 05:50:20;;;;;;;10.85;8.32;;;;;;;18.59;43.71;100599.50;3569023;40;20057;-70
2021/08/05 05:52:49;;;;;;;11.00;8.05;;;;;;;18.60;43.78;100600.38;3574384;40;20401;-69
2021/08/05 05:55:17;;;;;;;9.73;7.82;;;;;;;18.61;44.08;100591.84;3574898;40;20059;-69
2021/08/05 05:57:46;;;;;;;10.32;8.02;;;;;;;18.67;43.91;100593.00;3575102;40;20037;-65
2021/08/05 06:00:16;;;;;;;10.60;8.25;;;;;;;18.69;44.18;100600.06;3575439;40;20400;-65
2021/08/05 06:02:43;;;;;;;8.43;7.45;;;;;;;18.73;44.15;100597.78;3571028;40;20041;-65
2021/08/05 06:05:12;;;;;;;11.73;8.73;;;;;;;18.76;44.42;100592.72;3573413;40;20029;-65
2021/08/05 06:07:45;;;;;;;10.00;8.13;;;;;;;18.85;44.44;100607.38;3567266;40;20086;-65
2021/08/05 06:10:16;;;;;;;11.57;8.60;;;;;;;18.88;43.94;100604.19;3574257;40;20099;-65
2021/08/05 06:12:45;;;;;;;10.57;8.18;;;;;;;18.95;43.93;100609.81;3566886;40;20456;-65
2021/08/05 06:15:14;;;;;;;12.40;8.98;;;;;;;19.01;43.79;100609.06;3573278;40;20033;-65
2021/08/05 06:17:43;;;;;;;13.68;10.13;;;;;;;19.05;44.31;100608.47;3572804;40;20045;-65
2021/08/05 06:20:13;;;;;;;12.68;10.35;;;;;;;19.12;43.80;100614.09;3571967;40;20064;-65
2021/08/05 06:22:42;;;;;;;11.00;9.32;;;;;;;19.14;43.90;100607.31;3566613;40;20045;-65
2021/08/05 06:25:11;;;;;;;12.10;9.55;;;;;;;19.19;43.85;100618.66;3575544;40;20048;-65
2021/08/05 06:27:39;;;;;;;10.20;8.50;;;;;;;19.23;43.33;100609.97;3576582;40;20041;-66
2021/08/05 06:30:12;;;;;;;12.68;9.15;;;;;;;19.27;43.41;100612.13;3576313;40;20043;-65
2021/08/05 06:32:40;;;;;;;11.80;9.55;;;;;;;19.25;43.77;100616.19;3570809;40;20184;-65
2021/08/05 06:35:10;;;;;;;11.90;9.90;;;;;;;19.30;43.52;100610.91;3577071;40;20030;-65
2021/08/05 06:37:38;;;;;;;12.10;9.50;;;;;;;19.30;43.66;100608.97;3574803;40;20320;-65
2021/08/05 06:40:07;;;;;;;13.48;9.93;;;;;;;19.36;43.58;100615.66;3577212;40;20541;-65
2021/08/05 06:42:36;;;;;;;12.18;10.32;;;;;;;19.37;43.23;100614.59;3576552;40;20052;-65
2021/08/05 06:45:05;;;;;;;11.93;10.07;;;;;;;19.40;43.61;100617.84;3572964;40;20162;-65
2021/08/05 06:47:37;;;;;;;11.85;10.02;;;;;;;19.45;43.20;100620.03;3569316;40;20296;-65
2021/08/05 06:50:06;;;;;;;10.32;9.05;;;;;;;19.43;43.81;100614.66;3569323;40;20045;-66
2021/08/05 06:52:34;;;;;;;11.82;9.25;;;;;;;19.50;43.30;100614.78;3573703;40;20122;-65
2021/08/05 06:55:02;;;;;;;10.88;8.88;;;;;;;19.53;43.65;100617.16;3572303;40;20065;-65
2021/08/05 06:57:30;;;;;;;11.85;9.93;;;;;;;19.58;43.25;100613.81;3574119;40;20041;-65
2021/08/05 06:59:58;;;;;;;11.10;9.57;;;;;;;19.60;43.45;100620.84;3572393;40;20109;-65
2021/08/05 07:02:26;;;;;;;13.50;10.10;;;;;;;19.63;43.21;100612.16;3572770;40;20048;-65
2021/08/05 07:05:01;;;;;;;9.65;7.93;;;;;;;19.70;43.38;100620.53;3574996;40;20048;-65
2021/08/05 07:07:29;;;;;;;11.73;9.63;;;;;;;19.71;43.17;100608.38;3573957;40;20041;-70
2021/08/05 07:09:57;;;;;;;10.98;9.07;;;;;;;19.74;43.14;100617.19;3573217;40;20103;-66
2021/08/05 07:12:25;;;;;;;11.63;9.63;;;;;;;19.76;42.88;100622.56;3576989;40;20072;-66
2021/08/05 07:14:53;;;;;;;11.82;9.52;;;;;;;19.78;43.12;100614.84;3573073;40;20037;-65
2021/08/05 07:17:21;;;;;;;11.15;9.02;;;;;;;19.81;42.99;100617.25;3572555;40;20369;-65
2021/08/05 07:19:49;;;;;;;11.35;8.60;;;;;;;19.82;42.98;100614.28;3575642;40;20142;-65
2021/08/05 07:22:19;;;;;;;10.35;8.75;;;;;;;19.88;43.09;100615.38;3570479;40;20323;-67
2021/08/05 07:24:46;;;;;;;11.25;9.23;;;;;;;19.87;43.16;100611.75;3568648;40;20104;-67
2021/08/05 07:27:18;;;;;;;12.40;9.35;;;;;;;19.91;43.27;100603.91;3564600;39;20048;-64
2021/08/05 07:29:46;;;;;;;11.60;10.15;;;;;;;19.94;42.95;100604.34;3571463;40;20400;-64
2021/08/05 07:32:13;;;;;;;11.13;9.70;;;;;;;19.98;43.10;100609.50;3572678;40;20041;-66
2021/08/05 07:34:42;;;;;;;12.73;9.90;;;;;;;20.02;42.90;100610.81;3570887;40;20053;-63
2021/08/05 07:37:10;;;;;;;12.13;9.88;;;;;;;20.06;43.13;100609.38;3568098;40;20400;-64
2021/08/05 07:39:39;;;;;;;12.55;9.88;;;;;;;20.13;42.78;100618.59;3572494;40;20044;-65
2021/08/05 07:42:07;;;;;;;12.15;10.25;;;;;;;20.15;42.83;100610.94;3572360;40;20056;-65
2021/08/05 07:44:34;;;;;;;13.68;11.10;;;;;;;20.20;42.82;100619.50;3568191;40;20052;-65
2021/08/05 07:47:03;;;;;;;13.07;11.13;;;;;;;20.25;42.80;100614.25;3566814;40;20053;-65
2021/08/05 07:49:31;;;;;;;13.13;11.57;;;;;;;20.30;42.41;100612.59;3571160;40;20138;-65
2021/08/05 07:51:59;;;;;;;12.10;10.80;;;;;;;20.35;42.47;100611.97;3565826;40;20059;-65
2021/08/05 07:54:27;;;;;;;14.38;12.07;;;;;;;20.41;42.26;100618.66;3567579;40;20029;-66
2021/08/05 07:56:56;;;;;;;13.18;11.70;;;;;;;20.47;42.39;100618.69;3570768;40;21575;-66
2021/08/05 07:59:24;;;;;;;11.75;10.43;;;;;;;20.50;41.86;100611.88;3571616;40;20045;-65
2021/08/05 08:01:52;;;;;;;12.13;10.52;;;;;;;20.55;42.23;100601.00;3567087;40;20057;-66
2021/08/05 08:04:20;;;;;;;12.65;10.95;;;;;;;20.58;41.81;100597.81;3570236;40;20034;-66
2021/08/05 08:06:48;;;;;;;13.73;11.57;;;;;;;20.61;41.63;100594.63;3570457;40;20053;-66
2021/08/05 08:09:17;;;;;;;14.57;11.40;;;;;;;20.66;41.59;100592.97;3568348;40;21427;-65
2021/08/05 08:11:45;;;;;;;12.13;10.57;;;;;;;20.67;41.62;100591.88;3574554;40;20041;-65
2021/08/05 08:14:14;;;;;;;13.02;10.50;;;;;;;20.73;41.55;100590.22;3570222;40;20425;-66
2021/08/05 08:16:42;;;;;;;13.88;10.82;;;;;;;20.73;42.10;100583.78;3570593;40;20053;-66
2021/08/05 08:19:10;;;;;;;11.98;10.45;;;;;;;20.75;41.78;100582.50;3570420;39;20123;-66
2021/08/05 08:21:38;;;;;;;13.00;10.85;;;;;;;20.77;41.96;100585.94;3567557;40;20030;-66
2021/08/05 08:24:09;;;;;;;13.55;11.20;;;;;;;20.80;41.36;100585.53;3565173;40;20103;-66
2021/08/05 08:26:38;;;;;;;11.35;9.93;;;;;;;20.82;41.30;100588.13;3574195;40;20044;-66
2021/08/05 08:29:05;;;;;;;12.10;10.52;;;;;;;20.83;41.64;100578.72;3577621;40;20048;-65
2021/08/05 08:31:35;;;;;;;12.57;10.73;;;;;;;20.86;41.54;100586.63;3564997;40;20041;-65
2021/08/05 08:34:03;;;;;;;13.05;11.07;;;;;;;20.84;41.39;100589.59;3567903;40;20046;-66
2021/08/05 08:36:31;;;;;;;14.70;11.57;;;;;;;20.86;41.25;100581.06;3570194;40;21295;-66
2021/08/05 08:38:59;;;;;;;14.98;11.10;;;;;;;20.87;41.39;100577.22;3572656;39;20049;-66
2021/08/05 08:41:28;;;;;;;14.15;10.95;;;;;;;20.88;41.15;100581.72;3569961;40;20049;-65
2021/08/05 08:43:56;;;;;;;12.65;11.27;;;;;;;20.89;41.20;100575.13;3574494;40;20045;-66
2021/08/05 08:46:25;;;;;;;12.32;10.70;;;;;;;20.92;41.45;100577.47;3571588;40;20075;-66
2021/08/05 08:48:56;;;;;;;14.50;11.85;;;;;;;20.94;41.08;100581.78;3571789;40;20430;-66
2021/08/05 08:51:26;;;;;;;12.85;10.88;;;;;;;20.95;41.15;100568.75;3569723;40;20052;-66
2021/08/05 08:53:55;;;;;;;11.43;9.98;;;;;;;20.96;41.15;100573.25;3564731;40;20044;-65
2021/08/05 08:56:23;;;;;;;13.13;10.48;;;;;;;20.98;41.63;100574.75;3574501;40;20075;-66
2021/08/05 08:58:53;;;;;;;14.38;11.90;;;;;;;20.99;41.15;100572.84;3569053;40;20048;-65
2021/08/05 09:01:21;;;;;;;13.70;12.05;;;;;;;21.00;41.41;100567.03;3567726;40;20130;-65
2021/08/05 09:03:49;;;;;;;12.90;11.43;;;;;;;21.03;41.10;100568.56;3572395;40;20118;-66
2021/08/05 09:06:18;;;;;;;13.60;11.52;;;;;;;21.06;41.00;100565.38;3574768;40;20328;-66
2021/08/05 09:08:46;;;;;;;12.43;10.93;;;;;;;21.06;41.14;100562.59;3570422;40;20056;-66
2021/08/05 09:11:14;;;;;;;13.15;10.98;;;;;;;21.08;41.21;100566.84;3575251;40;20037;-65
2021/08/05 09:13:42;;;;;;;12.70;10.23;;;;;;;21.11;40.78;100560.03;3574146;40;20037;-65
2021/08/05 09:16:21;;;;;;;12.50;11.13;;;;;;;21.17;40.65;100563.88;3574037;40;20060;-66
2021/08/05 09:18:49;;;;;;;12.00;10.32;;;;;;;21.16;40.57;100562.19;3567904;40;20046;-65
2021/08/05 09:21:21;;;;;;;15.70;13.00;;;;;;;21.20;40.52;100558.78;3567955;40;20025;-66
2021/08/05 09:23:59;;;;;;;13.90;12.00;;;;;;;21.22;40.98;100555.78;3567048;40;20279;-66
2021/08/05 09:26:33;;;;;;;13.10;10.23;;;;;;;21.25;40.21;100560.91;3569860;40;20049;-66
2021/08/05 09:29:07;;;;;;;13.55;11.65;;;;;;;21.25;40.94;100561.78;3565672;40;20045;-66
2021/08/05 09:31:37;;;;;;;15.85;12.23;;;;;;;21.27;40.55;100561.56;3568666;40;20037;-66
2021/08/05 09:34:08;;;;;;;13.88;11.90;;;;;;;21.30;40.50;100561.16;3567361;40;20122;-66
2021/08/05 09:36:37;;;;;;;13.00;10.98;;;;;;;21.33;40.46;100561.59;3567590;40;20517;-66
2021/08/05 09:39:15;;;;;;;13.77;11.77;;;;;;;21.38;40.51;100552.63;3567209;40;20092;-66
2021/08/05 09:42:01;;;;;;;14.00;11.20;;;;;;;21.39;40.72;100549.63;3568127;40;20467;-65
2021/08/05 09:44:43;;;;;;;12.10;10.35;;;;;;;21.44;40.59;100555.41;3566768;40;20127;-68
2021/08/05 09:47:13;;;;;;;12.90;11.18;;;;;;;21.46;40.99;100552.44;3566396;40;20061;-68
2021/08/05 09:49:51;;;;;;;11.20;9.98;;;;;;;21.51;40.61;100551.78;3568243;40;20057;-68
2021/08/05 09:52:28;;;;;;;11.82;10.45;;;;;;;21.58;40.68;100544.31;3564384;40;20060;-65
2021/08/05 09:54:56;;;;;;;10.93;9.77;;;;;;;21.60;40.44;100553.31;3566403;40;20049;-64
2021/08/05 09:57:25;;;;;;;11.35;10.07;;;;;;;21.66;40.06;100549.69;3565622;40;20037;-64
2021/08/05 09:59:55;;;;;;;7.18;6.15;;;;;;;21.69;40.29;100552.91;3566399;40;20068;-65
2021/08/05 10:02:25;;;;;;;7.57;6.20;;;;;;;21.73;39.98;100550.56;3566040;40;20068;-66
2021/08/05 10:04:54;;;;;;;8.07;7.28;;;;;;;21.77;39.37;100543.50;3567298;40;20352;-67
2021/08/05 10:07:21;;;;;;;8.50;6.10;;;;;;;21.81;39.87;100542.00;3567236;40;20045;-67
2021/08/05 10:09:58;;;;;;;7.45;5.93;;;;;;;21.88;39.46;100531.72;3572352;40;20053;-66
2021/08/05 10:12:31;;;;;;;6.70;5.50;;;;;;;21.89;39.48;100525.09;3568735;40;20048;-66
2021/08/05 10:15:10;;;;;;;6.13;5.47;;;;;;;21.98;39.86;100531.28;3567280;40;20045;-66
2021/08/05 10:17:39;;;;;;;7.18;5.63;;;;;;;22.00;39.61;100524.41;3569096;40;20030;-66
2021/08/05 10:20:09;;;;;;;6.50;5.30;;;;;;;22.08;39.85;100520.53;3568784;40;20060;-67
2021/08/05 10:22:37;;;;;;;5.95;4.60;;;;;;;22.14;39.62;100516.91;3563411;40;20037;-66
2021/08/05 10:25:09;;;;;;;5.13;4.07;;;;;;;22.27;39.76;100518.84;3563756;40;20162;-67
2021/08/05 10:27:38;;;;;;;5.72;4.40;;;;;;;22.33;39.97;100517.97;3565904;40;20060;-67
2021/08/05 10:30:10;;;;;;;7.20;5.82;;;;;;;22.47;39.53;100511.31;3565167;40;20053;-66
2021/08/05 10:32:39;;;;;;;6.97;5.57;;;;;;;22.55;39.15;100508.28;3572066;40;20337;-65
2021/08/05 10:35:08;;;;;;;6.30;4.85;;;;;;;22.70;39.33;100503.28;3572454;40;20410;-65
2021/08/05 10:37:37;;;;;;;6.35;5.60;;;;;;;22.82;39.06;100509.00;3563544;40;20038;-67
2021/08/05 10:40:09;;;;;;;7.97;6.80;;;;;;;22.96;38.77;100502.34;3564785;40;20088;-66
2021/08/05 10:42:37;;;;;;;7.25;6.38;;;;;;;23.00;39.02;100500.81;3568810;40;20052;-66
2021/08/05 10:45:06;;;;;;;6.90;6.15;;;;;;;23.13;38.68;100497.09;3566265;40;20049;-66
2021/08/05 10:47:39;;;;;;;7.78;6.72;;;;;;;23.22;38.36;100495.75;3565223;40;20127;-64
2021/08/05 10:50:11;;;;;;;7.40;6.43;;;;;;;23.32;37.52;100488.56;3570409;40;20079;-66
2021/08/05 10:52:46;;;;;;;6.30;5.32;;;;;;;23.40;37.75;100478.22;3569045;40;20051;-66
2021/08/05 10:55:30;;;;;;;6.93;5.72;;;;;;;23.50;37.66;100481.41;3569323;40;20052;-66
2021/08/05 10:58:11;;;;;;;7.25;6.13;;;;;;;23.60;37.17;100473.38;3567964;40;20045;-66
2021/08/05 11:01:01;;;;;;;6.15;5.55;;;;;;;23.68;36.92;100478.69;3566841;40;20057;-65
2021/08/05 11:03:42;;;;;;;5.28;4.53;;;;;;;23.79;36.31;100474.31;3565981;40;20042;-65
2021/08/05 11:06:35;;;;;;;8.73;7.78;;;;;;;23.84;36.57;100474.47;3569137;40;20107;-66
2021/08/05 11:09:33;;;;;;;7.63;6.82;;;;;;;23.88;36.25;100476.53;3567469;40;20045;-65
2021/08/05 11:12:39;;;;;;;9.50;7.97;;;;;;;23.94;36.74;100461.69;3569687;40;20128;-65
2021/08/05 11:15:45;;;;;;;7.30;6.50;;;;;;;24.00;36.56;100468.28;3566344;40;20040;-65
2021/08/05 11:18:31;;;;;;;6.60;6.00;;;;;;;24.07;36.08;100466.31;3566782;40;20689;-66
2021/08/05 11:21:38;;;;;;;4.40;3.53;;;;;;;24.15;34.34;100463.22;3565883;40;20082;-66
2021/08/05 11:24:06;;;;;;;3.58;2.40;;;;;;;24.20;35.05;100463.38;3564991;40;20041;-66
2021/08/05 11:26:34;;;;;;;4.93;2.47;;;;;;;24.29;35.01;100461.16;3565109;40;20045;-67
2021/08/05 11:29:03;;;;;;;3.63;2.40;;;;;;;24.37;34.89;100453.28;3566829;40;20318;-65
2021/08/05 11:31:38;;;;;;;4.50;2.60;;;;;;;24.44;35.10;100453.22;3568705;40;20067;-65
2021/08/05 11:34:09;;;;;;;4.22;3.20;;;;;;;24.48;34.85;100451.66;3567150;40;20060;-66
2021/08/05 11:36:45;;;;;;;4.20;3.20;;;;;;;24.58;34.53;100453.91;3567300;40;20878;-65